This is the latest recevied weather packets stored in our database for station/object YO6SAY-10. If no packets are shown the sender has not sent any weather packets the latest 10 day(s).
| Time | Temp. | Humidity | Pressure | Rain* | Wind** | Luminosity | Snow |
|---|---|---|---|---|---|---|---|
| 1777436914 | 13.89° C | 44% | 951.2 hPa | - | - | - | - |
| 1777436011 | 13.89° C | 44% | 951.3 hPa | - | - | - | - |
| 1777435111 | 13.89° C | 44% | 951.4 hPa | - | - | - | - |
| 1777434211 | 13.89° C | 44% | 951.3 hPa | - | - | - | - |
| 1777433311 | 13.89° C | 44% | 951.2 hPa | - | - | - | - |
| 1777432410 | 13.89° C | 43% | 951.2 hPa | - | - | - | - |
| 1777431510 | 13.89° C | 43% | 951.2 hPa | - | - | - | - |
| 1777428810 | 13.89° C | 43% | 951.2 hPa | - | - | - | - |
| 1777427910 | 13.89° C | 43% | 951.3 hPa | - | - | - | - |
| 1777423409 | 13.89° C | 43% | 951.3 hPa | - | - | - | - |
| 1777422509 | 14.44° C | 42% | 951.3 hPa | - | - | - | - |
| 1777421609 | 14.44° C | 42% | 951.3 hPa | - | - | - | - |
| 1777415308 | 15° C | 40% | 951.5 hPa | - | - | - | - |
| 1777410807 | 15.56° C | 38% | 951.3 hPa | - | - | - | - |
| 1777406305 | 16.11° C | 37% | 951.2 hPa | - | - | - | - |
| 1777404505 | 16.11° C | 36% | 951.2 hPa | - | - | - | - |
| 1777400904 | 17.22° C | 34% | 950.9 hPa | - | - | - | - |
| 1777399103 | 17.78° C | 33% | 950.6 hPa | - | - | - | - |
| 1777393702 | 20.56° C | 29% | 949.9 hPa | - | - | - | - |
| 1777392802 | 21.11° C | 29% | 949.8 hPa | - | - | - | - |
| 1777390101 | 23.33° C | 29% | 949.9 hPa | - | - | - | - |
| 1777381100 | 20.56° C | 32% | 950 hPa | - | - | - | - |
| 1777377499 | 16.11° C | 34% | 950.6 hPa | - | - | - | - |
| 1777375699 | 15.56° C | 35% | 950.7 hPa | - | - | - | - |
| 1777373898 | 15° C | 38% | 950.9 hPa | - | - | - | - |
* Rain since midnight (hover to see other rain measurements)
** Current wind speed in m/s (hover to see current wind gust speed)